Time;durP1;ratioP1;P1;durP2;ratioP2;P2;SDS_P1;SDS_P2;PMS_P1;PMS_P2;Temp;Humidity;BMP_temperature;BMP_pressure;BME280_temperature;BME280_humidity;BME280_pressure;Samples;Min_cycle;Max_cycle;Signal;HPM_P1;HPM_P2
2023/07/22 00:00:44;;;;;;;3.80;3.40;;;;;;;16.10;90.45;101008.66;6280186;28;20604;-65
2023/07/22 00:04:05;;;;;;;6.10;5.60;;;;;;;15.98;90.69;101008.13;6248972;28;20227;-66
2023/07/22 00:07:27;;;;;;;4.90;4.50;;;;;;;15.78;90.93;101004.88;6275063;28;20266;-66
2023/07/22 00:10:48;;;;;;;5.27;3.77;;;;;;;15.88;90.92;101005.56;6299742;28;20255;-66
2023/07/22 00:14:10;;;;;;;5.07;4.60;;;;;;;15.92;90.99;101009.66;6264495;28;20251;-66
2023/07/22 00:17:33;;;;;;;7.43;5.33;;;;;;;15.73;91.18;101011.78;6287517;27;21091;-65
2023/07/22 00:20:54;;;;;;;4.83;4.33;;;;;;;15.85;91.09;101003.16;6282156;28;20238;-66
2023/07/22 00:24:15;;;;;;;5.40;4.90;;;;;;;15.52;91.09;101006.81;6267198;28;20228;-66
2023/07/22 00:27:38;;;;;;;5.43;4.97;;;;;;;15.67;91.11;101012.47;6266120;28;20235;-66
2023/07/22 00:30:59;;;;;;;4.93;4.23;;;;;;;15.65;91.44;101014.50;6302140;28;20228;-65
2023/07/22 00:34:23;;;;;;;5.10;4.53;;;;;;;15.78;90.83;101014.88;6269639;28;20334;-66
2023/07/22 00:37:44;;;;;;;5.57;4.97;;;;;;;15.62;90.95;101020.28;6291978;28;20291;-65
2023/07/22 00:41:05;;;;;;;4.20;3.77;;;;;;;15.55;91.48;101005.63;6269802;28;20228;-66
2023/07/22 00:44:27;;;;;;;5.53;4.63;;;;;;;15.67;91.57;101015.19;6273913;28;20230;-66
2023/07/22 00:47:48;;;;;;;6.67;5.17;;;;;;;15.52;91.72;101009.53;6272748;28;20227;-66
2023/07/22 00:51:11;;;;;;;6.93;6.27;;;;;;;15.63;91.66;101005.66;6270832;28;20298;-66
2023/07/22 00:54:33;;;;;;;6.67;5.33;;;;;;;15.42;92.21;101016.06;6300627;28;20231;-65
2023/07/22 00:57:55;;;;;;;6.63;4.90;;;;;;;15.48;92.02;101008.16;6290258;28;20239;-65
2023/07/22 01:01:16;;;;;;;5.13;4.67;;;;;;;15.38;92.33;101006.56;6271768;28;21006;-65
2023/07/22 01:04:38;;;;;;;6.20;4.60;;;;;;;15.45;92.09;101005.78;6267793;28;20223;-66
2023/07/22 01:08:01;;;;;;;5.97;5.37;;;;;;;15.44;92.46;101006.78;6239045;28;20251;-66
2023/07/22 01:11:23;;;;;;;6.13;4.83;;;;;;;15.38;92.79;101010.13;6259553;28;20228;-66
2023/07/22 01:14:45;;;;;;;7.47;4.23;;;;;;;15.44;92.72;101005.94;6272590;28;20255;-65
2023/07/22 01:18:06;;;;;;;4.80;4.37;;;;;;;15.36;92.41;101014.88;6269839;27;20236;-66
2023/07/22 01:21:29;;;;;;;4.63;4.07;;;;;;;15.13;92.61;101009.19;6262694;28;20319;-65
2023/07/22 01:24:53;;;;;;;7.30;4.00;;;;;;;15.24;92.34;101010.75;6259613;28;20228;-66
2023/07/22 01:28:14;;;;;;;6.77;5.60;;;;;;;15.19;92.93;101003.09;6248245;28;20493;-66
2023/07/22 01:31:36;;;;;;;5.23;3.90;;;;;;;15.15;92.78;100999.00;6252636;28;20232;-66
2023/07/22 01:34:57;;;;;;;5.60;4.50;;;;;;;15.04;93.52;101006.59;6273091;28;20231;-65
2023/07/22 01:38:19;;;;;;;5.27;4.77;;;;;;;15.09;93.42;100998.78;6306218;28;20536;-66
2023/07/22 01:41:42;;;;;;;5.33;4.50;;;;;;;15.06;93.39;100999.97;6284078;28;20270;-66
2023/07/22 01:45:03;;;;;;;8.30;4.77;;;;;;;14.98;92.89;101001.78;6287391;28;20248;-66
2023/07/22 01:48:24;;;;;;;5.23;4.73;;;;;;;14.95;92.87;100997.56;6280528;28;20322;-65
2023/07/22 01:51:46;;;;;;;7.00;4.70;;;;;;;14.95;92.88;100997.56;6279166;28;20231;-64
2023/07/22 01:55:10;;;;;;;5.77;3.77;;;;;;;14.85;92.89;100995.97;6281576;28;20235;-64
2023/07/22 01:59:03;;;;;;;8.33;4.97;;;;;;;14.95;92.96;100992.13;6268879;28;20272;-66
2023/07/22 02:02:25;;;;;;;4.80;3.67;;;;;;;14.85;92.42;100993.25;6273543;28;20235;-65
2023/07/22 02:05:47;;;;;;;4.70;3.93;;;;;;;14.67;92.72;100995.16;6275428;28;20236;-65
2023/07/22 02:09:09;;;;;;;7.10;4.87;;;;;;;14.76;92.61;100991.47;6290288;28;20226;-65
2023/07/22 02:12:30;;;;;;;8.17;4.57;;;;;;;14.87;92.92;100997.47;6265911;28;20235;-65
2023/07/22 02:15:52;;;;;;;6.03;4.10;;;;;;;14.68;93.23;100989.59;6300592;28;20235;-66
2023/07/22 02:19:15;;;;;;;5.37;4.53;;;;;;;14.76;93.61;100997.78;6274552;28;20226;-65
2023/07/22 02:22:36;;;;;;;5.47;4.80;;;;;;;14.82;93.62;101001.69;6263434;28;20254;-65
2023/07/22 02:25:57;;;;;;;6.30;4.47;;;;;;;14.62;93.39;101000.22;6281918;28;20531;-65
2023/07/22 02:29:19;;;;;;;5.27;4.60;;;;;;;14.76;93.20;101013.19;6262219;28;20227;-66
2023/07/22 02:32:42;;;;;;;9.10;5.13;;;;;;;14.52;93.64;101003.00;6267782;28;20251;-65
2023/07/22 02:36:03;;;;;;;4.70;4.30;;;;;;;14.64;93.43;101015.34;6268627;28;20227;-65
2023/07/22 02:39:25;;;;;;;6.10;5.10;;;;;;;14.73;93.66;101016.22;6300849;28;20241;-65
2023/07/22 02:42:46;;;;;;;9.53;5.10;;;;;;;14.65;93.54;101017.03;6263652;28;20231;-66
2023/07/22 02:46:08;;;;;;;5.47;4.13;;;;;;;14.68;93.39;101013.16;6282707;28;20227;-65
2023/07/22 02:49:30;;;;;;;4.33;3.93;;;;;;;14.72;93.45;101007.25;6293723;28;20233;-65
2023/07/22 02:52:52;;;;;;;6.37;5.10;;;;;;;14.64;93.44;101023.47;6268432;28;20677;-66
2023/07/22 02:56:14;;;;;;;6.50;4.57;;;;;;;14.65;93.46;101024.31;6280686;28;20230;-65
2023/07/22 02:59:36;;;;;;;6.73;3.93;;;;;;;14.48;93.75;101012.47;6279164;28;20230;-65
2023/07/22 03:03:00;;;;;;;6.80;6.10;;;;;;;14.64;93.70;101018.06;6273862;28;20234;-64
2023/07/22 03:06:23;;;;;;;13.77;4.63;;;;;;;14.41;94.05;101025.00;6293741;28;20235;-65
2023/07/22 03:09:44;;;;;;;6.67;5.73;;;;;;;14.38;94.48;101026.16;6297972;28;20309;-65
2023/07/22 03:13:07;;;;;;;5.90;4.77;;;;;;;14.41;94.32;101028.53;6273721;28;20583;-66
2023/07/22 03:16:28;;;;;;;6.73;4.87;;;;;;;14.57;94.53;101024.25;6280645;28;20232;-66
2023/07/22 03:19:49;;;;;;;5.63;5.13;;;;;;;14.38;94.28;101020.72;6283728;28;20227;-65
2023/07/22 03:23:12;;;;;;;6.57;4.77;;;;;;;14.27;94.77;101030.91;6277381;28;20253;-65
2023/07/22 03:26:33;;;;;;;7.03;5.03;;;;;;;14.34;94.93;101038.31;6290524;28;20225;-64
2023/07/22 03:29:55;;;;;;;6.17;4.77;;;;;;;14.47;95.02;101037.06;6270216;28;20282;-65
2023/07/22 03:33:16;;;;;;;6.90;4.57;;;;;;;14.42;94.37;101040.25;6273664;28;20319;-63
2023/07/22 03:36:38;;;;;;;7.20;5.67;;;;;;;14.52;94.56;101049.13;6251356;28;20669;-65
2023/07/22 03:40:00;;;;;;;9.33;5.23;;;;;;;14.35;95.13;101037.28;6288039;28;20235;-65
2023/07/22 03:43:22;;;;;;;5.70;5.20;;;;;;;14.45;94.78;101047.22;6265718;28;20229;-65
2023/07/22 03:46:43;;;;;;;6.33;4.70;;;;;;;14.45;95.02;101048.09;6278571;28;20243;-65
2023/07/22 03:50:05;;;;;;;7.23;4.40;;;;;;;14.32;94.63;101050.34;6249520;28;20235;-65
2023/07/22 03:53:26;;;;;;;9.83;4.93;;;;;;;14.22;95.03;101044.97;6267980;28;20236;-66
2023/07/22 03:56:49;;;;;;;6.83;4.77;;;;;;;14.24;95.63;101045.66;6268198;28;20255;-66
2023/07/22 04:00:11;;;;;;;5.23;4.73;;;;;;;14.34;95.20;101041.03;6259562;28;20235;-65
2023/07/22 04:03:34;;;;;;;5.97;4.10;;;;;;;14.31;95.28;101038.63;6275351;28;20293;-65
2023/07/22 04:06:55;;;;;;;6.87;4.83;;;;;;;14.24;95.16;101053.78;6269811;28;20285;-64
2023/07/22 04:10:16;;;;;;;6.10;4.47;;;;;;;14.07;95.46;101048.34;6277083;28;20228;-65
2023/07/22 04:13:39;;;;;;;7.17;4.97;;;;;;;14.20;95.56;101046.13;6278584;28;20545;-65
2023/07/22 04:17:00;;;;;;;7.43;5.00;;;;;;;14.09;95.87;101041.78;6287494;28;20227;-64
2023/07/22 04:20:24;;;;;;;5.67;5.00;;;;;;;14.08;95.82;101056.34;6277230;28;20227;-65
2023/07/22 04:23:45;;;;;;;5.57;5.03;;;;;;;14.16;95.88;101056.41;6277693;28;20233;-65
2023/07/22 04:27:07;;;;;;;6.30;5.70;;;;;;;14.22;96.15;101065.81;6265254;28;20231;-64
2023/07/22 04:30:30;;;;;;;7.83;4.60;;;;;;;14.10;96.19;101059.75;6271842;28;20227;-66
2023/07/22 04:33:51;;;;;;;6.73;5.30;;;;;;;14.40;96.04;101066.66;6282372;28;20485;-65
2023/07/22 04:37:13;;;;;;;5.10;4.50;;;;;;;14.48;95.71;101063.19;6271683;28;20238;-65
2023/07/22 04:40:34;;;;;;;5.70;4.33;;;;;;;14.42;95.33;101070.06;6275236;28;20231;-65
2023/07/22 04:43:55;;;;;;;6.27;5.47;;;;;;;14.50;95.35;101081.00;6284374;28;20332;-65
2023/07/22 04:47:18;;;;;;;6.50;4.50;;;;;;;14.89;95.05;101081.50;6266336;28;20239;-64
2023/07/22 04:50:40;;;;;;;8.33;5.43;;;;;;;14.99;94.12;101093.97;6242834;28;20224;-65
2023/07/22 04:54:02;;;;;;;8.00;5.30;;;;;;;14.77;93.59;101090.91;6283974;28;20230;-64
2023/07/22 04:57:23;;;;;;;8.33;4.73;;;;;;;14.89;93.84;101095.06;6273459;28;20227;-65
2023/07/22 05:00:44;;;;;;;6.10;5.07;;;;;;;15.01;93.04;101107.38;6271457;28;20223;-65
2023/07/22 05:04:07;;;;;;;4.90;4.30;;;;;;;15.06;92.83;101105.03;6286926;28;20800;-64
2023/07/22 05:07:28;;;;;;;5.40;4.50;;;;;;;14.95;93.29;101110.72;6250324;28;20239;-65
2023/07/22 05:10:49;;;;;;;9.50;5.73;;;;;;;14.78;93.74;101114.31;6258625;28;21044;-65
2023/07/22 05:14:10;;;;;;;6.27;4.53;;;;;;;15.04;92.91;101112.50;6283340;28;20586;-65
2023/07/22 05:17:31;;;;;;;5.90;4.30;;;;;;;14.73;93.00;101109.34;6264277;28;20671;-65
2023/07/22 05:20:54;;;;;;;12.47;3.77;;;;;;;15.00;92.87;101111.94;6287597;28;20235;-65
2023/07/22 05:24:15;;;;;;;5.67;5.07;;;;;;;14.83;93.20;101114.72;6261699;28;20230;-65
2023/07/22 05:27:37;;;;;;;4.13;3.70;;;;;;;14.79;93.46;101107.88;6269300;28;20728;-65
2023/07/22 05:30:58;;;;;;;5.47;3.93;;;;;;;14.83;93.41;101112.81;6285687;28;20257;-65
2023/07/22 05:34:19;;;;;;;6.83;4.60;;;;;;;15.07;92.86;101117.59;6265002;28;20230;-65
2023/07/22 05:37:42;;;;;;;4.17;3.80;;;;;;;15.15;92.61;101106.78;6269036;28;20267;-65
2023/07/22 05:41:03;;;;;;;4.60;3.50;;;;;;;15.56;92.20;101121.50;6283394;28;20246;-65
2023/07/22 05:44:24;;;;;;;7.77;3.77;;;;;;;15.61;91.64;101130.84;6290878;28;20606;-65
2023/07/22 05:47:46;;;;;;;6.00;4.23;;;;;;;15.29;90.89;101130.63;6269971;28;20254;-65
2023/07/22 05:51:07;;;;;;;5.17;3.83;;;;;;;15.51;90.61;101132.84;6291907;28;20231;-65
2023/07/22 05:54:29;;;;;;;6.73;4.00;;;;;;;15.37;90.36;101127.13;6305238;28;20635;-65
2023/07/22 05:57:51;;;;;;;4.80;3.40;;;;;;;15.06;91.28;101127.59;6271049;28;20234;-66
2023/07/22 06:01:12;;;;;;;4.23;3.83;;;;;;;15.38;90.63;101135.09;6285438;28;20231;-65
2023/07/22 06:04:33;;;;;;;4.83;3.93;;;;;;;15.57;90.42;101139.50;6282934;28;20604;-66
2023/07/22 06:07:57;;;;;;;4.47;3.33;;;;;;;15.60;90.66;101139.19;6263391;28;20259;-67
2023/07/22 06:11:19;;;;;;;3.93;3.53;;;;;;;15.43;90.43;101135.53;6276612;28;20235;-65
2023/07/22 06:14:40;;;;;;;4.50;3.60;;;;;;;15.80;90.14;101136.03;6274202;28;20230;-65
2023/07/22 06:18:02;;;;;;;4.03;3.07;;;;;;;15.69;89.15;101141.75;6284400;28;20227;-65
2023/07/22 06:21:23;;;;;;;3.37;3.00;;;;;;;15.90;88.87;101138.63;6266923;28;20318;-66
2023/07/22 06:24:52;;;;;;;5.63;3.83;;;;;;;15.54;88.86;101145.25;6284836;28;20324;-67
2023/07/22 06:28:14;;;;;;;5.63;3.60;;;;;;;15.79;88.96;101156.06;6256367;28;20221;-65
2023/07/22 06:31:37;;;;;;;6.93;3.70;;;;;;;16.09;88.37;101146.50;6278744;28;20235;-67
2023/07/22 06:34:58;;;;;;;4.10;3.07;;;;;;;16.23;87.15;101145.88;6290297;28;20232;-66
2023/07/22 06:38:19;;;;;;;5.37;3.83;;;;;;;16.50;86.20;101140.19;6268133;28;20221;-66
2023/07/22 06:41:41;;;;;;;3.97;3.03;;;;;;;16.43;85.86;101151.88;6274075;28;20278;-66
2023/07/22 06:45:11;;;;;;;2.87;2.67;;;;;;;16.36;84.69;101157.13;6286975;28;20516;-66
2023/07/22 06:48:38;;;;;;;3.83;3.13;;;;;;;16.31;84.86;101156.78;6308025;28;20590;-65
2023/07/22 06:52:01;;;;;;;5.07;2.67;;;;;;;16.37;84.16;101158.84;6279763;28;20235;-64
2023/07/22 06:55:22;;;;;;;3.30;2.57;;;;;;;16.81;83.64;101148.56;6299101;28;20222;-65
2023/07/22 06:58:43;;;;;;;2.63;2.43;;;;;;;16.84;83.26;101150.94;6301846;28;20234;-66
2023/07/22 07:02:06;;;;;;;2.00;1.77;;;;;;;16.59;83.31;101155.50;6281255;28;20227;-66
2023/07/22 07:05:28;;;;;;;7.33;1.77;;;;;;;17.00;81.94;101161.00;6275814;28;21716;-64
2023/07/22 07:08:49;;;;;;;2.23;1.90;;;;;;;17.19;81.11;101153.28;6266876;28;20235;-66
2023/07/22 07:12:10;;;;;;;4.18;2.78;;;;;;;17.04;81.48;101163.22;6283360;28;20239;-66
2023/07/22 07:15:33;;;;;;;3.23;2.20;;;;;;;17.53;80.36;101158.56;6269181;28;20219;-67
2023/07/22 07:18:56;;;;;;;2.00;1.80;;;;;;;17.60;79.50;101167.75;6278875;28;20301;-67
2023/07/22 07:22:17;;;;;;;4.10;2.22;;;;;;;17.40;78.82;101172.69;6268746;28;20236;-66
2023/07/22 07:25:38;;;;;;;3.57;2.43;;;;;;;17.41;77.86;101168.09;6287651;28;20235;-66
2023/07/22 07:29:00;;;;;;;1.67;1.58;;;;;;;18.29;76.63;101170.53;6291277;28;20241;-66
2023/07/22 07:32:21;;;;;;;2.10;1.50;;;;;;;18.94;74.32;101160.03;6281394;28;20341;-66
2023/07/22 07:35:46;;;;;;;2.33;1.90;;;;;;;18.25;74.67;101161.00;6273529;28;20616;-66
2023/07/22 07:39:07;;;;;;;2.72;2.17;;;;;;;17.89;74.81;101178.06;6287159;28;20233;-67
2023/07/22 07:42:29;;;;;;;2.07;1.37;;;;;;;18.14;73.90;101169.59;6270488;28;20230;-66
2023/07/22 07:45:51;;;;;;;1.53;1.43;;;;;;;17.63;75.08;101172.84;6236751;28;20235;-66
2023/07/22 07:49:12;;;;;;;2.75;2.55;;;;;;;18.10;74.47;101172.84;6263321;28;20229;-66
2023/07/22 07:52:35;;;;;;;1.98;1.85;;;;;;;18.24;74.33;101186.59;6250122;28;20224;-66
2023/07/22 07:55:56;;;;;;;3.33;2.07;;;;;;;18.21;74.25;101189.66;6301294;28;20238;-65
2023/07/22 07:59:17;;;;;;;1.80;1.40;;;;;;;17.69;74.45;101196.69;6272568;28;20545;-65
2023/07/22 08:02:39;;;;;;;1.60;1.45;;;;;;;17.88;74.43;101207.19;6259890;28;20230;-66
2023/07/22 08:06:01;;;;;;;2.13;1.93;;;;;;;17.80;73.99;101201.78;6275353;28;20247;-66
2023/07/22 08:09:23;;;;;;;3.30;1.30;;;;;;;17.72;73.79;101190.03;6281236;28;20231;-66
2023/07/22 08:12:45;;;;;;;3.37;2.03;;;;;;;18.01;73.06;101193.00;6264342;28;20357;-66
2023/07/22 08:16:07;;;;;;;2.30;2.10;;;;;;;17.74;73.81;101201.63;6269752;28;20254;-66
2023/07/22 08:19:28;;;;;;;2.97;2.07;;;;;;;17.82;74.66;101207.03;6267129;28;20239;-66
2023/07/22 08:22:50;;;;;;;1.90;1.50;;;;;;;17.43;76.27;101196.91;6268423;28;20235;-66
2023/07/22 08:26:13;;;;;;;2.23;1.77;;;;;;;17.55;76.20;101200.13;6271088;28;20255;-66
2023/07/22 08:29:34;;;;;;;1.33;1.23;;;;;;;17.97;75.48;101202.56;6263036;28;20255;-66
2023/07/22 08:32:56;;;;;;;1.27;1.10;;;;;;;18.20;73.54;101198.91;6271737;28;20339;-66
2023/07/22 08:36:17;;;;;;;1.25;1.15;;;;;;;17.81;72.39;101206.22;6277191;28;20322;-66
2023/07/22 08:39:39;;;;;;;2.63;1.52;;;;;;;18.15;71.11;101205.91;6252698;28;20230;-67
2023/07/22 08:43:03;;;;;;;2.75;2.03;;;;;;;18.24;70.96;101194.78;6236264;28;20259;-67
2023/07/22 08:46:29;;;;;;;1.48;1.25;;;;;;;18.41;69.35;101209.22;6226313;28;20227;-66
2023/07/22 08:49:54;;;;;;;3.00;1.30;;;;;;;18.11;66.92;101207.28;6240194;28;20617;-66
2023/07/22 08:53:16;;;;;;;1.80;1.60;;;;;;;18.61;66.21;101204.19;6242550;28;20223;-67
2023/07/22 08:56:37;;;;;;;1.92;0.70;;;;;;;18.94;63.65;101198.31;6240789;28;20251;-65
2023/07/22 09:00:05;;;;;;;1.92;1.00;;;;;;;18.78;63.36;101214.81;6224729;28;20857;-66
2023/07/22 09:03:28;;;;;;;3.97;1.17;;;;;;;18.81;63.37;101206.28;6261926;28;20235;-66
2023/07/22 09:06:50;;;;;;;1.30;0.80;;;;;;;18.80;63.34;101204.56;6233947;28;20318;-66
2023/07/22 09:10:12;;;;;;;2.13;0.98;;;;;;;18.84;63.95;101205.88;6227546;28;20236;-66
2023/07/22 09:13:35;;;;;;;2.28;1.15;;;;;;;18.77;64.35;101207.66;6241172;28;20223;-66
2023/07/22 09:16:59;;;;;;;0.88;0.80;;;;;;;19.48;63.19;101203.69;6228409;28;20596;-67
2023/07/22 09:20:22;;;;;;;2.95;1.50;;;;;;;19.79;61.94;101204.38;6239984;28;20231;-67
2023/07/22 09:23:44;;;;;;;1.52;1.13;;;;;;;19.74;61.96;101204.94;6245592;28;20314;-66
2023/07/22 09:27:06;;;;;;;0.85;0.65;;;;;;;19.21;62.56;101196.06;6244497;28;20560;-66
2023/07/22 09:30:28;;;;;;;2.08;0.90;;;;;;;19.43;62.81;101211.59;6232140;28;20296;-67
2023/07/22 09:33:53;;;;;;;1.27;1.05;;;;;;;18.66;61.65;101218.13;6243504;28;20323;-66
2023/07/22 09:37:15;;;;;;;0.95;0.90;;;;;;;19.39;60.66;101185.66;6246374;28;20229;-66
2023/07/22 09:40:36;;;;;;;1.55;1.30;;;;;;;19.33;59.93;101186.38;6240592;28;20232;-66
2023/07/22 09:43:57;;;;;;;1.35;1.25;;;;;;;19.82;59.07;101199.38;6253399;28;20313;-66
2023/07/22 09:47:18;;;;;;;0.98;0.75;;;;;;;19.82;58.63;101182.09;6245779;28;20229;-66
2023/07/22 09:50:42;;;;;;;1.90;1.00;;;;;;;20.00;59.77;101193.53;6252506;28;20224;-66
2023/07/22 09:54:05;;;;;;;1.13;0.77;;;;;;;19.53;58.93;101190.28;6259436;28;20620;-67
2023/07/22 09:57:28;;;;;;;2.50;1.35;;;;;;;20.40;58.88;101201.25;6250983;28;20224;-66
2023/07/22 10:00:51;;;;;;;1.08;0.77;;;;;;;19.81;59.02;101189.50;6263431;28;20311;-66
2023/07/22 10:04:16;;;;;;;2.13;0.73;;;;;;;19.82;59.52;101191.16;6227326;28;20232;-67
2023/07/22 10:07:42;;;;;;;2.33;1.40;;;;;;;19.46;59.61;101195.66;6222971;28;20235;-66
2023/07/22 10:11:06;;;;;;;4.60;1.23;;;;;;;20.25;58.82;101186.75;6198120;28;20319;-66
2023/07/22 10:14:28;;;;;;;1.08;0.82;;;;;;;20.64;57.36;101184.47;6211916;28;20429;-66
2023/07/22 10:17:51;;;;;;;1.70;1.30;;;;;;;20.42;56.29;101193.69;6213580;28;20247;-67
2023/07/22 10:21:13;;;;;;;1.45;1.05;;;;;;;20.76;56.00;101183.97;6239431;28;20239;-65
2023/07/22 10:24:37;;;;;;;1.85;1.25;;;;;;;20.30;57.75;101181.53;6254949;28;20232;-66
2023/07/22 10:27:58;;;;;;;1.05;1.05;;;;;;;19.61;57.64;101177.38;6202399;28;20330;-66
2023/07/22 10:31:20;;;;;;;1.33;1.23;;;;;;;20.19;56.37;101176.53;6211171;28;20314;-66
2023/07/22 10:34:41;;;;;;;1.20;1.10;;;;;;;20.47;55.46;101180.28;6212873;28;20235;-66
2023/07/22 10:38:08;;;;;;;1.17;1.13;;;;;;;21.23;54.55;101181.50;6204719;28;20534;-66
2023/07/22 10:41:31;;;;;;;1.52;1.10;;;;;;;21.19;53.54;101182.97;6218768;28;20231;-66
2023/07/22 10:44:52;;;;;;;2.33;1.40;;;;;;;20.36;55.26;101188.16;6208071;28;20232;-67
2023/07/22 10:48:14;;;;;;;1.42;1.20;;;;;;;20.66;54.64;101176.91;6208177;28;20255;-67
2023/07/22 10:51:37;;;;;;;1.70;1.15;;;;;;;20.12;55.40;101175.59;6219043;28;20236;-67
2023/07/22 10:54:58;;;;;;;1.42;1.33;;;;;;;20.87;54.28;101173.34;6215049;28;20240;-66
2023/07/22 10:58:24;;;;;;;2.05;1.73;;;;;;;20.72;54.12;101178.03;6225726;28;20227;-66
2023/07/22 11:01:46;;;;;;;1.55;1.15;;;;;;;20.41;54.87;101197.47;6236167;28;20235;-66
2023/07/22 11:05:07;;;;;;;2.05;1.70;;;;;;;20.96;54.31;101180.41;6237172;28;20355;-67
2023/07/22 11:08:43;;;;;;;1.10;1.00;;;;;;;20.58;54.09;101187.16;6224165;28;20322;-67
2023/07/22 11:12:06;;;;;;;1.30;1.20;;;;;;;21.79;52.87;101169.47;6230269;28;20236;-65
2023/07/22 11:15:30;;;;;;;2.35;1.60;;;;;;;21.12;51.77;101165.59;6237800;28;20318;-65
2023/07/22 11:18:52;;;;;;;1.67;1.58;;;;;;;20.81;52.75;101170.53;6228895;28;20229;-66
2023/07/22 11:22:14;;;;;;;2.30;1.60;;;;;;;21.65;52.35;101186.91;6239660;28;20498;-66
2023/07/22 11:25:35;;;;;;;5.07;1.83;;;;;;;21.03;52.94;101183.22;6231774;28;20579;-66
2023/07/22 11:28:58;;;;;;;1.67;1.33;;;;;;;20.39;52.98;101185.88;6234083;28;20528;-65
2023/07/22 11:32:22;;;;;;;1.90;1.80;;;;;;;20.26;53.13;101171.16;6237454;28;20239;-66
2023/07/22 11:35:44;;;;;;;1.67;1.55;;;;;;;20.75;52.40;101177.66;6235675;28;20232;-66
2023/07/22 11:39:06;;;;;;;5.90;2.08;;;;;;;21.42;52.37;101175.34;6232787;28;20241;-66
2023/07/22 11:42:29;;;;;;;3.17;2.00;;;;;;;21.24;52.61;101159.38;6229808;28;20240;-66
2023/07/22 11:45:50;;;;;;;1.48;1.38;;;;;;;20.51;54.39;101153.34;6249299;28;20248;-66
2023/07/22 11:49:14;;;;;;;2.17;2.00;;;;;;;20.52;54.69;101155.03;6263426;28;20236;-65
2023/07/22 11:52:35;;;;;;;2.17;1.95;;;;;;;20.11;55.07;101164.84;6221869;28;20219;-65
2023/07/22 11:55:57;;;;;;;2.58;1.73;;;;;;;20.03;55.61;101149.34;6236587;28;20256;-66
2023/07/22 11:59:33;;;;;;;2.80;2.05;;;;;;;20.52;55.34;101158.66;6236735;28;20232;-65
2023/07/22 12:02:57;;;;;;;2.25;1.90;;;;;;;21.06;54.70;101163.63;6248952;28;20232;-65
2023/07/22 12:06:19;;;;;;;2.40;2.15;;;;;;;20.99;54.90;101157.19;6236948;28;21062;-66
2023/07/22 12:09:41;;;;;;;2.60;2.40;;;;;;;20.81;55.41;101154.06;6238756;28;20240;-64
2023/07/22 12:13:03;;;;;;;3.10;2.67;;;;;;;20.50;56.41;101152.50;6244325;28;20236;-65
2023/07/22 12:16:26;;;;;;;2.78;2.35;;;;;;;21.01;55.73;101149.63;6230252;28;20233;-67
2023/07/22 12:19:57;;;;;;;7.68;2.35;;;;;;;22.28;53.05;101133.59;6237010;28;20326;-66
2023/07/22 12:23:21;;;;;;;5.05;3.10;;;;;;;21.66;53.71;101143.84;6236638;28;20239;-66
2023/07/22 12:26:44;;;;;;;3.47;2.70;;;;;;;21.18;54.77;101138.22;6266976;28;20258;-66
2023/07/22 12:30:07;;;;;;;4.05;2.30;;;;;;;21.09;55.41;101133.91;6224904;28;20243;-66
2023/07/22 12:33:28;;;;;;;5.15;4.55;;;;;;;21.52;56.05;101131.09;6237179;28;20244;-67
2023/07/22 12:36:49;;;;;;;5.72;4.68;;;;;;;21.03;56.57;101131.13;6258057;28;20240;-65
2023/07/22 12:40:14;;;;;;;4.30;2.70;;;;;;;20.85;57.33;101125.22;6238294;28;20236;-66
2023/07/22 12:43:35;;;;;;;2.90;2.60;;;;;;;20.46;57.60;101129.25;6241572;28;20235;-65
2023/07/22 12:46:57;;;;;;;4.38;2.75;;;;;;;20.20;58.47;101139.06;6224154;28;20541;-64
2023/07/22 12:50:19;;;;;;;4.55;3.35;;;;;;;19.45;61.02;101150.22;6239885;28;20624;-66
2023/07/22 12:53:44;;;;;;;3.92;3.33;;;;;;;19.69;61.59;101149.94;6236333;28;20586;-66
2023/07/22 12:57:07;;;;;;;5.70;3.65;;;;;;;19.87;60.30;101157.78;6222596;28;20231;-67
2023/07/22 13:00:28;;;;;;;4.93;4.15;;;;;;;19.67;61.07;101159.38;6237275;28;20260;-67
2023/07/22 13:03:50;;;;;;;5.50;4.80;;;;;;;19.62;61.31;101167.28;6250361;28;20232;-67
2023/07/22 13:07:12;;;;;;;8.52;4.25;;;;;;;19.12;63.58;101162.47;6236344;28;20236;-66
2023/07/22 13:10:35;;;;;;;4.93;3.63;;;;;;;18.81;65.75;101164.44;6240363;28;20314;-66
2023/07/22 13:14:02;;;;;;;3.92;3.60;;;;;;;19.36;66.77;101165.00;6228170;28;20584;-66
2023/07/22 13:17:24;;;;;;;6.75;4.85;;;;;;;19.33;66.96;101164.50;6242768;28;20235;-65
2023/07/22 13:20:47;;;;;;;4.63;3.90;;;;;;;19.11;67.38;101167.06;6241409;28;20559;-66
2023/07/22 13:24:09;;;;;;;5.35;4.57;;;;;;;19.48;68.11;101169.00;6266094;28;20630;-65
2023/07/22 13:27:34;;;;;;;4.32;3.30;;;;;;;19.96;67.72;101172.22;6225699;28;20255;-69
2023/07/22 13:31:01;;;;;;;5.28;4.78;;;;;;;19.91;67.63;101187.31;6231409;28;20232;-68
2023/07/22 13:34:26;;;;;;;5.30;4.80;;;;;;;19.33;70.82;101194.56;6233346;28;21140;-67
2023/07/22 13:37:53;;;;;;;4.60;3.35;;;;;;;19.01;72.93;101190.22;6225715;28;21704;-68
2023/07/22 13:41:18;;;;;;;12.82;11.07;;;;;;;19.30;74.77;101189.47;6259739;28;20645;-67
2023/07/22 13:44:41;;;;;;;6.53;5.38;;;;;;;19.31;75.50;101182.97;6239539;28;20606;-68
2023/07/22 13:48:06;;;;;;;7.82;5.88;;;;;;;19.71;75.74;101182.59;6239035;28;20235;-69
2023/07/22 13:51:27;;;;;;;4.78;4.22;;;;;;;20.62;73.12;101174.75;6228351;28;20604;-69
2023/07/22 13:54:50;;;;;;;6.85;5.93;;;;;;;20.78;73.74;101177.25;6229835;28;20236;-68
2023/07/22 13:58:12;;;;;;;4.68;4.28;;;;;;;21.14;71.77;101169.84;6229564;28;20263;-68
2023/07/22 14:01:33;;;;;;;5.90;5.25;;;;;;;21.41;70.95;101174.50;6239228;28;20231;-68
2023/07/22 14:04:57;;;;;;;11.60;6.30;;;;;;;21.59;70.58;101173.97;6247884;28;20257;-69
2023/07/22 14:08:18;;;;;;;6.10;5.25;;;;;;;21.36;70.18;101166.00;6247973;28;20690;-67
2023/07/22 14:11:39;;;;;;;7.32;5.72;;;;;;;21.57;70.56;101159.59;6255946;28;20240;-68
2023/07/22 14:15:04;;;;;;;8.50;7.63;;;;;;;21.56;70.87;101155.19;6235096;28;20239;-69
2023/07/22 14:18:28;;;;;;;7.57;6.20;;;;;;;21.82;69.63;101157.28;6234964;28;20231;-68
2023/07/22 14:21:54;;;;;;;6.05;4.25;;;;;;;21.19;70.27;101158.28;6227568;28;20770;-68
2023/07/22 14:25:22;;;;;;;6.05;5.25;;;;;;;21.15;71.06;101156.97;6245188;28;20623;-69
2023/07/22 14:28:45;;;;;;;6.95;5.47;;;;;;;21.29;71.94;101153.28;6220510;28;20262;-68
2023/07/22 14:32:16;;;;;;;10.77;8.25;;;;;;;21.35;71.52;101156.09;6234833;28;20785;-67
2023/07/22 14:35:47;;;;;;;6.95;6.10;;;;;;;20.96;71.64;101155.72;6213592;28;20236;-67
2023/07/22 14:39:16;;;;;;;5.88;4.68;;;;;;;20.91;70.79;101149.97;6217879;28;20227;-66
2023/07/22 14:42:40;;;;;;;4.80;4.18;;;;;;;20.60;71.86;101150.28;6205694;28;20263;-66
2023/07/22 14:46:01;;;;;;;5.95;5.07;;;;;;;20.23;72.16;101145.03;6219630;28;20841;-66
2023/07/22 14:49:23;;;;;;;4.07;3.67;;;;;;;20.30;71.80;101140.47;6216531;28;20236;-66
2023/07/22 14:52:44;;;;;;;6.25;3.95;;;;;;;20.15;72.75;101141.50;6222806;28;20247;-67
2023/07/22 14:56:07;;;;;;;3.55;3.25;;;;;;;20.24;72.30;101146.72;6215509;28;20244;-69
2023/07/22 14:59:28;;;;;;;3.95;3.60;;;;;;;19.60;73.26;101136.53;6224326;28;20228;-68
2023/07/22 15:02:50;;;;;;;5.28;3.55;;;;;;;20.17;72.52;101125.75;6237814;28;21901;-68
2023/07/22 15:06:14;;;;;;;6.60;2.97;;;;;;;19.78;70.45;101129.66;6216880;28;20225;-68
2023/07/22 15:09:36;;;;;;;3.83;3.53;;;;;;;20.05;70.92;101124.53;6239038;28;20609;-68
2023/07/22 15:12:59;;;;;;;7.93;5.70;;;;;;;20.25;71.95;101123.78;6233125;28;20228;-67
2023/07/22 15:16:22;;;;;;;7.00;5.13;;;;;;;19.75;70.96;101129.19;6228275;28;20236;-67
2023/07/22 15:19:43;;;;;;;5.60;3.85;;;;;;;19.79;71.34;101123.16;6229063;28;20232;-67
2023/07/22 15:23:05;;;;;;;3.65;3.13;;;;;;;20.03;70.77;101116.50;6235431;28;20231;-68
2023/07/22 15:26:26;;;;;;;3.70;3.40;;;;;;;20.24;69.64;101126.69;6239033;28;20244;-68
2023/07/22 15:29:53;;;;;;;9.77;6.07;;;;;;;20.01;70.00;101126.78;6235910;28;20606;-68
2023/07/22 15:33:14;;;;;;;10.32;7.78;;;;;;;19.99;70.64;101125.28;6221999;28;20715;-68
2023/07/22 15:36:36;;;;;;;6.78;4.68;;;;;;;19.89;70.95;101133.81;6239910;28;20525;-67
2023/07/22 15:39:57;;;;;;;3.47;3.17;;;;;;;19.38;71.80;101127.38;6265041;28;20232;-68